Time;durP1;ratioP1;P1;durP2;ratioP2;P2;SDS_P1;SDS_P2;PMS_P1;PMS_P2;Temp;Humidity;BMP_temperature;BMP_pressure;BME280_temperature;BME280_humidity;BME280_pressure;Samples;Min_cycle;Max_cycle;Signal;HPM_P1;HPM_P2
2023/01/08 00:02:16;;;;;;;4.77;4.47;;;10.80;99.90;;;;;;5054067;28;20712;-64
2023/01/08 00:04:42;;;;;;;4.30;4.10;;;10.80;99.90;;;;;;5053651;28;20198;-64
2023/01/08 00:07:08;;;;;;;5.00;4.70;;;10.80;99.90;;;;;;5054084;28;20648;-64
2023/01/08 00:09:33;;;;;;;5.50;5.27;;;10.70;99.90;;;;;;5052059;28;20166;-64
2023/01/08 00:11:59;;;;;;;4.60;4.40;;;10.70;99.90;;;;;;5052911;28;20242;-64
2023/01/08 00:14:24;;;;;;;4.67;4.47;;;10.60;99.90;;;;;;5053798;28;20178;-64
2023/01/08 00:16:50;;;;;;;4.80;4.60;;;10.50;99.90;;;;;;5053414;28;20183;-64
2023/01/08 00:19:16;;;;;;;4.53;4.33;;;10.50;99.90;;;;;;5053536;28;20182;-65
2023/01/08 00:21:42;;;;;;;5.00;4.80;;;10.40;99.90;;;;;;5053323;28;20210;-65
2023/01/08 00:24:07;;;;;;;5.00;4.80;;;10.40;99.90;;;;;;5053879;28;20167;-65
2023/01/08 00:26:33;;;;;;;4.73;4.53;;;10.30;99.90;;;;;;5053415;28;20672;-65
2023/01/08 00:28:58;;;;;;;4.67;4.47;;;10.30;99.90;;;;;;5053323;28;20629;-65
2023/01/08 00:31:24;;;;;;;5.40;4.90;;;10.30;99.90;;;;;;5052962;28;20605;-65
2023/01/08 00:33:50;;;;;;;5.43;5.03;;;10.20;99.90;;;;;;5053356;28;20190;-65
2023/01/08 00:36:17;;;;;;;4.63;4.43;;;10.20;99.90;;;;;;5053687;28;20182;-65
2023/01/08 00:38:44;;;;;;;7.63;5.40;;;10.20;99.90;;;;;;5052999;28;20545;-65
2023/01/08 00:41:10;;;;;;;5.07;4.87;;;10.30;99.90;;;;;;5053037;28;20307;-64
2023/01/08 00:43:37;;;;;;;5.47;5.17;;;10.30;99.90;;;;;;5052171;28;20576;-65
2023/01/08 00:46:03;;;;;;;5.33;5.03;;;10.30;99.90;;;;;;5053192;28;20175;-65
2023/01/08 00:48:29;;;;;;;7.27;6.67;;;10.30;99.90;;;;;;5052988;28;20592;-65
2023/01/08 00:50:55;;;;;;;5.33;4.93;;;10.30;99.90;;;;;;5052865;28;20171;-63
2023/01/08 00:53:21;;;;;;;5.60;5.30;;;10.30;99.90;;;;;;5052761;28;20207;-64
2023/01/08 00:55:47;;;;;;;5.07;4.87;;;10.30;99.90;;;;;;5053073;28;20186;-65
2023/01/08 00:58:13;;;;;;;5.33;4.97;;;10.40;99.90;;;;;;5052775;28;20525;-65
2023/01/08 01:00:39;;;;;;;5.20;4.90;;;10.40;99.90;;;;;;5052538;28;20213;-64
2023/01/08 01:03:05;;;;;;;4.70;4.50;;;10.40;99.90;;;;;;5052671;28;20657;-65
2023/01/08 01:05:30;;;;;;;4.90;4.70;;;10.40;99.90;;;;;;5052936;28;20179;-64
2023/01/08 01:07:56;;;;;;;4.93;4.73;;;10.50;99.90;;;;;;5052600;28;20630;-65
2023/01/08 01:10:22;;;;;;;5.70;5.30;;;10.50;99.90;;;;;;5051474;28;20179;-65
2023/01/08 01:12:48;;;;;;;5.20;4.93;;;10.50;99.90;;;;;;5052229;28;20331;-64
2023/01/08 01:15:16;;;;;;;5.17;4.87;;;10.60;99.90;;;;;;5052632;28;20609;-65
2023/01/08 01:17:43;;;;;;;4.90;4.70;;;10.60;99.90;;;;;;5052375;28;20277;-65
2023/01/08 01:20:14;;;;;;;5.13;4.93;;;10.60;99.90;;;;;;5051986;28;20213;-65
2023/01/08 01:22:40;;;;;;;4.67;4.47;;;10.60;99.90;;;;;;5052335;28;20190;-65
2023/01/08 01:25:06;;;;;;;5.10;4.90;;;10.60;99.90;;;;;;5052241;28;20177;-64
2023/01/08 01:27:32;;;;;;;4.50;4.30;;;10.60;99.90;;;;;;5052392;28;20246;-65
2023/01/08 01:29:57;;;;;;;4.93;4.63;;;10.60;99.90;;;;;;5051769;28;20194;-64
2023/01/08 01:32:23;;;;;;;5.30;5.00;;;10.60;99.90;;;;;;5052286;28;20226;-64
2023/01/08 01:34:48;;;;;;;5.20;4.80;;;10.70;99.90;;;;;;5051895;28;20512;-64
2023/01/08 01:37:15;;;;;;;5.03;4.80;;;10.70;99.90;;;;;;5052222;28;20202;-65
2023/01/08 01:39:48;;;;;;;5.00;4.80;;;10.70;99.90;;;;;;5051576;28;20210;-64
2023/01/08 01:45:01;;;;;;;4.70;4.50;;;10.80;99.90;;;;;;5051999;28;20239;-64
2023/01/08 01:47:35;;;;;;;4.87;4.63;;;10.80;99.90;;;;;;5053058;28;20167;-64
2023/01/08 01:50:06;;;;;;;4.90;4.70;;;10.80;99.90;;;;;;5056809;28;20668;-65
2023/01/08 01:52:41;;;;;;;5.53;5.33;;;10.80;99.90;;;;;;5051949;28;20199;-64
2023/01/08 01:55:08;;;;;;;5.57;5.33;;;10.80;99.90;;;;;;5051378;28;20189;-64
2023/01/08 01:57:34;;;;;;;5.67;5.37;;;10.70;99.90;;;;;;5051376;28;20214;-64
2023/01/08 02:00:03;;;;;;;5.97;5.67;;;10.70;99.90;;;;;;5051051;28;20622;-64
2023/01/08 02:02:31;;;;;;;5.90;5.50;;;10.70;99.90;;;;;;5051662;28;20205;-64
2023/01/08 02:04:57;;;;;;;5.63;5.23;;;10.70;99.90;;;;;;5051548;28;20171;-64
2023/01/08 02:07:51;;;;;;;5.60;5.30;;;10.80;99.90;;;;;;5051496;28;20184;-64
2023/01/08 02:10:35;;;;;;;5.53;5.13;;;10.70;99.90;;;;;;5039390;28;20229;-64
2023/01/08 02:13:11;;;;;;;5.73;5.40;;;10.70;99.90;;;;;;5050156;28;20226;-65
2023/01/08 02:15:47;;;;;;;6.53;6.13;;;10.70;99.90;;;;;;5051432;28;20185;-65
2023/01/08 02:18:19;;;;;;;5.50;5.20;;;10.70;99.90;;;;;;5051693;28;20296;-64
2023/01/08 02:20:51;;;;;;;6.17;5.67;;;10.60;99.90;;;;;;5050864;28;20206;-65
2023/01/08 02:23:25;;;;;;;5.27;4.97;;;10.60;99.90;;;;;;5051471;28;20201;-65
2023/01/08 02:25:59;;;;;;;6.70;6.30;;;10.50;99.90;;;;;;5051384;28;20193;-64
2023/01/08 02:28:26;;;;;;;5.43;5.13;;;10.40;99.90;;;;;;5051604;28;20548;-64
2023/01/08 02:30:53;;;;;;;5.60;5.30;;;10.30;99.90;;;;;;5050874;28;20270;-64
2023/01/08 02:33:19;;;;;;;5.20;4.90;;;10.30;99.90;;;;;;5051284;28;20264;-64
2023/01/08 02:35:52;;;;;;;6.23;5.63;;;10.20;99.90;;;;;;5051092;28;20198;-64
2023/01/08 02:38:17;;;;;;;5.10;4.90;;;10.20;99.90;;;;;;5051539;28;20206;-64
2023/01/08 02:40:55;;;;;;;6.17;5.80;;;10.10;99.90;;;;;;5049419;28;20238;-64
2023/01/08 02:43:41;;;;;;;5.87;5.57;;;10.10;99.90;;;;;;5051261;28;20198;-64
2023/01/08 02:46:13;;;;;;;5.57;5.33;;;10.10;99.90;;;;;;5051300;28;20197;-64
2023/01/08 02:48:43;;;;;;;5.20;4.90;;;10.10;99.90;;;;;;5051387;28;20171;-64
2023/01/08 02:51:19;;;;;;;5.47;5.23;;;10.10;99.90;;;;;;5050686;28;20210;-65
2023/01/08 02:53:49;;;;;;;5.17;4.87;;;10.10;99.90;;;;;;5031297;28;20174;-65
2023/01/08 02:56:19;;;;;;;5.60;5.30;;;10.10;99.90;;;;;;5041028;28;20574;-65
2023/01/08 02:58:47;;;;;;;7.83;5.40;;;10.10;99.90;;;;;;5052855;28;20182;-65
2023/01/08 03:01:19;;;;;;;5.50;5.30;;;10.10;99.90;;;;;;5059007;28;20199;-65
2023/01/08 03:03:49;;;;;;;5.43;5.13;;;10.10;99.90;;;;;;5059188;28;20262;-65
2023/01/08 03:06:18;;;;;;;5.97;5.57;;;10.10;99.90;;;;;;5057576;28;20533;-65
2023/01/08 03:08:46;;;;;;;4.97;4.73;;;10.10;99.90;;;;;;5055190;28;20171;-65
2023/01/08 03:11:15;;;;;;;5.20;4.90;;;10.10;99.90;;;;;;5053686;28;20185;-65
2023/01/08 03:14:16;;;;;;;6.00;5.60;;;10.10;99.90;;;;;;5054914;28;20240;-64
2023/01/08 03:16:47;;;;;;;5.60;5.30;;;10.10;99.90;;;;;;5054929;28;20179;-64
2023/01/08 03:19:27;;;;;;;5.90;5.50;;;10.20;99.90;;;;;;5054972;28;20567;-64
2023/01/08 03:21:54;;;;;;;6.73;5.60;;;10.20;99.90;;;;;;5054829;28;20195;-64
2023/01/08 03:24:26;;;;;;;5.07;4.77;;;10.20;99.90;;;;;;5053457;28;20179;-65
2023/01/08 03:26:58;;;;;;;5.57;5.27;;;10.10;99.90;;;;;;5054622;28;20300;-64
2023/01/08 03:29:25;;;;;;;5.20;5.00;;;10.10;99.90;;;;;;5054323;28;20247;-64
2023/01/08 03:31:55;;;;;;;5.97;5.67;;;10.10;99.90;;;;;;5054307;28;20229;-64
2023/01/08 03:34:23;;;;;;;5.97;5.47;;;10.10;99.90;;;;;;5054434;28;20662;-64
2023/01/08 03:36:52;;;;;;;5.43;5.03;;;10.10;99.90;;;;;;5054541;28;20167;-64
2023/01/08 03:39:42;;;;;;;5.10;4.80;;;10.10;99.90;;;;;;5052695;28;20520;-65
2023/01/08 03:42:12;;;;;;;6.33;5.87;;;10.10;99.90;;;;;;5051251;28;20219;-65
2023/01/08 03:44:38;;;;;;;7.37;5.20;;;10.10;99.90;;;;;;5054281;28;20179;-65
2023/01/08 03:47:07;;;;;;;6.17;5.57;;;10.10;99.90;;;;;;5053927;28;20667;-65
2023/01/08 03:49:34;;;;;;;5.77;5.47;;;10.10;99.90;;;;;;5054051;28;20182;-65
2023/01/08 03:51:59;;;;;;;5.60;5.30;;;10.10;99.90;;;;;;5054007;28;20201;-65
2023/01/08 03:54:30;;;;;;;5.70;5.40;;;10.10;99.90;;;;;;5054242;28;20537;-64
2023/01/08 03:56:56;;;;;;;5.07;4.70;;;10.00;99.90;;;;;;5053933;28;20245;-65
2023/01/08 03:59:22;;;;;;;5.70;5.40;;;10.00;99.90;;;;;;5033845;28;20167;-65
2023/01/08 04:01:47;;;;;;;6.03;5.63;;;9.90;99.90;;;;;;5033943;28;20665;-65
2023/01/08 04:04:13;;;;;;;5.17;4.97;;;9.90;99.90;;;;;;5052779;28;20183;-65
2023/01/08 04:06:39;;;;;;;5.37;5.07;;;9.80;99.90;;;;;;5054163;28;20250;-65
2023/01/08 04:09:04;;;;;;;6.30;5.90;;;9.70;99.90;;;;;;5052300;28;20178;-66
2023/01/08 04:11:31;;;;;;;5.43;4.93;;;9.70;99.90;;;;;;5052723;28;20430;-64
2023/01/08 04:13:56;;;;;;;5.20;4.80;;;9.70;99.90;;;;;;5053624;28;20244;-65
2023/01/08 04:16:22;;;;;;;5.07;4.87;;;9.70;99.90;;;;;;5053912;28;20166;-65
2023/01/08 04:18:47;;;;;;;5.80;5.50;;;9.70;99.90;;;;;;5052052;28;20661;-64
2023/01/08 04:21:13;;;;;;;5.13;4.87;;;9.60;99.90;;;;;;5053460;28;20199;-66
2023/01/08 04:23:39;;;;;;;5.00;4.80;;;9.70;99.90;;;;;;5053409;28;20256;-65
2023/01/08 04:26:05;;;;;;;4.80;4.60;;;9.60;99.90;;;;;;5053733;28;20179;-65
2023/01/08 04:28:31;;;;;;;5.33;5.03;;;9.60;99.90;;;;;;5053490;28;20221;-66
2023/01/08 04:30:57;;;;;;;5.93;5.53;;;9.70;99.90;;;;;;5053272;28;20655;-65
2023/01/08 04:33:24;;;;;;;5.10;4.83;;;9.60;99.90;;;;;;5053240;28;20684;-65
2023/01/08 04:35:50;;;;;;;5.17;4.97;;;9.60;99.90;;;;;;5053842;28;20219;-65
2023/01/08 04:38:16;;;;;;;5.30;5.00;;;9.60;99.90;;;;;;5053175;28;20544;-66
2023/01/08 04:40:41;;;;;;;4.83;4.63;;;9.50;99.90;;;;;;5052952;28;20199;-65
2023/01/08 04:43:07;;;;;;;5.13;4.93;;;9.50;99.90;;;;;;5053047;28;20597;-65
2023/01/08 04:45:33;;;;;;;5.67;5.37;;;9.50;99.90;;;;;;5053250;28;20209;-65
2023/01/08 04:47:59;;;;;;;5.40;5.10;;;9.50;99.90;;;;;;5053229;28;20171;-65
2023/01/08 04:50:25;;;;;;;5.60;5.33;;;9.50;99.90;;;;;;5052788;28;20245;-66
2023/01/08 04:52:51;;;;;;;4.97;4.77;;;9.50;99.90;;;;;;5052927;28;20206;-65
2023/01/08 04:55:17;;;;;;;4.70;4.50;;;9.40;99.90;;;;;;5052948;28;20175;-65
2023/01/08 04:57:42;;;;;;;5.43;5.13;;;9.40;99.90;;;;;;5053002;28;20175;-66
2023/01/08 05:00:08;;;;;;;4.37;4.17;;;9.50;99.90;;;;;;5051223;28;20206;-65
2023/01/08 05:02:34;;;;;;;4.83;4.63;;;9.40;99.90;;;;;;5051809;28;20195;-65
2023/01/08 05:05:00;;;;;;;4.70;4.40;;;9.50;99.90;;;;;;5051342;28;20293;-65
2023/01/08 05:07:25;;;;;;;4.80;4.60;;;9.40;99.90;;;;;;5052945;28;20185;-65
2023/01/08 05:09:51;;;;;;;4.60;4.40;;;9.40;99.90;;;;;;5051791;28;20213;-65
2023/01/08 05:12:17;;;;;;;4.83;4.63;;;9.40;99.90;;;;;;5052594;28;20728;-65
2023/01/08 05:14:43;;;;;;;4.40;4.20;;;9.40;99.90;;;;;;5052737;28;20224;-65
2023/01/08 05:17:08;;;;;;;4.90;4.70;;;9.40;99.90;;;;;;5052567;28;20175;-66
2023/01/08 05:19:34;;;;;;;4.97;4.77;;;9.40;99.90;;;;;;5052262;28;20297;-65
2023/01/08 05:21:59;;;;;;;5.43;5.20;;;9.40;99.90;;;;;;5052433;28;20191;-65
2023/01/08 05:24:25;;;;;;;4.60;4.40;;;9.40;99.90;;;;;;5052487;28;20672;-65
2023/01/08 05:26:50;;;;;;;5.07;4.87;;;9.40;99.90;;;;;;5052419;28;20648;-66
2023/01/08 05:29:16;;;;;;;5.13;4.93;;;9.40;99.90;;;;;;5051555;28;20214;-65
2023/01/08 05:31:42;;;;;;;4.90;4.70;;;9.40;99.90;;;;;;5052163;28;20237;-65
2023/01/08 05:34:08;;;;;;;5.30;4.90;;;9.40;99.90;;;;;;5052107;28;20183;-65
2023/01/08 05:36:33;;;;;;;5.10;4.90;;;9.40;99.90;;;;;;5052713;28;20186;-65
2023/01/08 05:38:59;;;;;;;5.50;5.27;;;9.40;99.90;;;;;;5052115;28;20189;-65
2023/01/08 05:41:25;;;;;;;5.10;4.90;;;9.40;99.90;;;;;;5051785;28;20766;-65
2023/01/08 05:43:50;;;;;;;5.37;5.17;;;9.40;99.90;;;;;;5050474;28;20175;-65
2023/01/08 05:46:16;;;;;;;5.77;5.57;;;9.40;99.90;;;;;;5052320;28;20171;-65
2023/01/08 05:48:41;;;;;;;5.37;5.17;;;9.40;99.90;;;;;;5051835;28;20214;-65
2023/01/08 05:51:07;;;;;;;5.40;5.10;;;9.40;99.90;;;;;;5050793;28;20182;-64
2023/01/08 05:53:33;;;;;;;5.03;4.83;;;9.40;99.90;;;;;;5051401;28;20213;-65
2023/01/08 05:56:04;;;;;;;4.90;4.70;;;9.40;99.90;;;;;;5052032;28;20186;-65
2023/01/08 05:58:30;;;;;;;5.03;4.83;;;9.40;99.90;;;;;;5052204;28;20595;-65
2023/01/08 06:01:10;;;;;;;5.33;5.03;;;9.40;99.90;;;;;;5051516;28;20210;-65
2023/01/08 06:03:36;;;;;;;5.73;5.53;;;9.50;99.90;;;;;;5051711;28;20217;-65
2023/01/08 06:06:04;;;;;;;4.70;4.50;;;9.50;99.90;;;;;;5051869;28;20230;-66
2023/01/08 06:08:30;;;;;;;4.90;4.70;;;9.40;99.90;;;;;;5051646;28;20186;-65
2023/01/08 06:11:04;;;;;;;5.53;5.27;;;9.40;99.90;;;;;;5040671;28;20579;-65
2023/01/08 06:13:30;;;;;;;5.13;4.93;;;9.40;99.90;;;;;;5031767;28;20270;-65
2023/01/08 06:15:58;;;;;;;5.37;5.17;;;9.30;99.90;;;;;;5031992;28;20183;-65
2023/01/08 06:18:25;;;;;;;5.07;4.87;;;9.30;99.90;;;;;;5034949;28;20192;-65
2023/01/08 06:20:50;;;;;;;5.33;5.13;;;9.30;99.90;;;;;;5049981;28;20221;-65
2023/01/08 06:23:16;;;;;;;4.80;4.60;;;9.30;99.90;;;;;;5051225;28;20194;-65
2023/01/08 06:25:41;;;;;;;5.07;4.80;;;9.30;99.90;;;;;;5051853;28;20178;-65
2023/01/08 06:28:07;;;;;;;5.10;4.90;;;9.30;99.90;;;;;;5066683;28;20170;-65
2023/01/08 06:30:33;;;;;;;4.87;4.67;;;9.30;99.90;;;;;;5067497;28;20209;-65
2023/01/08 06:32:59;;;;;;;5.40;5.20;;;9.40;99.90;;;;;;5066561;28;20225;-65
2023/01/08 06:35:26;;;;;;;4.93;4.73;;;9.40;99.90;;;;;;5057181;28;20184;-64
2023/01/08 06:37:54;;;;;;;5.10;4.90;;;9.40;99.90;;;;;;5051292;28;20266;-65
2023/01/08 06:40:20;;;;;;;4.57;4.37;;;9.50;99.90;;;;;;5051250;28;20622;-65
2023/01/08 06:42:45;;;;;;;5.47;5.17;;;9.50;99.90;;;;;;5053743;28;20241;-66
2023/01/08 06:45:11;;;;;;;5.17;4.90;;;9.40;99.90;;;;;;5055421;28;20163;-66
2023/01/08 06:47:37;;;;;;;5.27;5.07;;;9.00;99.90;;;;;;5055456;28;20179;-65
2023/01/08 06:50:04;;;;;;;5.47;5.27;;;8.70;99.90;;;;;;5055249;28;20171;-65
2023/01/08 06:52:30;;;;;;;5.37;5.07;;;8.40;99.90;;;;;;5055350;28;20211;-65
2023/01/08 06:54:55;;;;;;;5.37;5.07;;;8.20;99.90;;;;;;5054031;28;20190;-65
2023/01/08 06:57:21;;;;;;;5.50;5.30;;;8.10;99.90;;;;;;5051048;28;20236;-65
2023/01/08 06:59:47;;;;;;;5.43;5.10;;;8.10;99.90;;;;;;5054923;28;20656;-65
2023/01/08 07:02:14;;;;;;;5.23;5.00;;;8.10;99.90;;;;;;5055144;28;20675;-64
2023/01/08 07:04:40;;;;;;;6.63;5.00;;;8.00;99.90;;;;;;5054070;28;20175;-65
2023/01/08 07:07:05;;;;;;;5.30;5.10;;;8.00;99.90;;;;;;5054864;28;20183;-65
2023/01/08 07:09:33;;;;;;;5.33;5.13;;;8.00;99.90;;;;;;5053275;28;20183;-65
2023/01/08 07:11:59;;;;;;;5.43;5.03;;;7.90;99.90;;;;;;5053021;28;20690;-66
2023/01/08 07:14:24;;;;;;;5.07;4.87;;;7.90;99.90;;;;;;5055074;28;20167;-64
2023/01/08 07:16:50;;;;;;;5.00;4.80;;;7.90;99.90;;;;;;5054526;28;20206;-63
2023/01/08 07:19:15;;;;;;;5.97;5.77;;;7.90;99.90;;;;;;5054509;28;20190;-64
2023/01/08 07:21:41;;;;;;;5.40;5.20;;;8.00;99.90;;;;;;5053474;28;20205;-63
2023/01/08 07:24:07;;;;;;;6.07;5.77;;;8.00;99.90;;;;;;5054830;28;20171;-64
2023/01/08 07:26:33;;;;;;;6.40;5.83;;;8.00;99.90;;;;;;5054527;28;20250;-64
2023/01/08 07:28:58;;;;;;;5.00;4.80;;;8.00;99.90;;;;;;5054544;28;20179;-64
2023/01/08 07:31:24;;;;;;;5.03;4.83;;;8.00;99.90;;;;;;5053929;28;20198;-63
2023/01/08 07:33:50;;;;;;;5.30;5.10;;;8.00;99.90;;;;;;5054581;28;20205;-64
2023/01/08 07:36:21;;;;;;;5.73;5.43;;;8.00;99.90;;;;;;5054441;28;20213;-63
2023/01/08 07:38:49;;;;;;;5.97;5.53;;;8.00;99.90;;;;;;5054897;28;20229;-64
2023/01/08 07:41:16;;;;;;;5.37;4.83;;;8.00;99.90;;;;;;5054273;28;20560;-64
2023/01/08 07:43:41;;;;;;;5.67;5.47;;;8.00;99.90;;;;;;5054552;28;20672;-63
2023/01/08 07:46:07;;;;;;;6.10;5.70;;;8.00;99.90;;;;;;5054245;28;20175;-63
2023/01/08 07:48:33;;;;;;;5.10;4.90;;;8.00;99.90;;;;;;5054494;28;20178;-63
2023/01/08 07:51:03;;;;;;;6.23;5.63;;;8.00;99.90;;;;;;5052229;28;20270;-63
2023/01/08 07:53:29;;;;;;;6.20;5.90;;;8.00;99.90;;;;;;5053955;28;20289;-64
2023/01/08 07:56:02;;;;;;;6.73;5.73;;;8.00;99.90;;;;;;5053977;28;20258;-62
2023/01/08 07:58:27;;;;;;;6.00;5.70;;;8.00;99.90;;;;;;5054549;28;20667;-64
2023/01/08 08:00:53;;;;;;;6.17;5.67;;;8.00;99.90;;;;;;5053306;28;20202;-64
2023/01/08 08:03:19;;;;;;;5.73;5.43;;;8.10;99.90;;;;;;5054206;28;20699;-63
2023/01/08 08:05:44;;;;;;;6.97;6.47;;;8.10;99.90;;;;;;5053716;28;20214;-64
2023/01/08 08:08:11;;;;;;;5.53;5.23;;;8.10;99.90;;;;;;5053999;28;20178;-64
2023/01/08 08:10:38;;;;;;;5.53;5.33;;;8.10;99.90;;;;;;5053360;28;20289;-63
2023/01/08 08:13:04;;;;;;;5.93;5.63;;;8.10;99.90;;;;;;5053459;28;20691;-64
2023/01/08 08:15:30;;;;;;;10.30;6.33;;;8.00;99.90;;;;;;5053411;28;20237;-63
2023/01/08 08:17:55;;;;;;;5.70;5.40;;;8.10;99.90;;;;;;5053595;28;20175;-63
2023/01/08 08:20:21;;;;;;;5.70;5.30;;;8.10;99.90;;;;;;5053050;28;20210;-64
2023/01/08 08:22:46;;;;;;;6.13;5.73;;;8.10;99.90;;;;;;5053422;28;20731;-64
2023/01/08 08:25:14;;;;;;;5.67;5.37;;;8.20;99.90;;;;;;5053151;28;20195;-63
2023/01/08 08:27:40;;;;;;;6.70;5.67;;;8.20;99.90;;;;;;5033626;28;20266;-64
2023/01/08 08:30:06;;;;;;;6.63;6.13;;;8.20;99.90;;;;;;5033196;28;20179;-63
2023/01/08 08:32:32;;;;;;;6.30;6.00;;;8.20;99.90;;;;;;5052799;28;20226;-64
2023/01/08 08:34:58;;;;;;;6.87;6.20;;;8.20;99.90;;;;;;5053332;28;20175;-64
2023/01/08 08:37:24;;;;;;;12.87;7.17;;;8.20;99.90;;;;;;5053089;28;20225;-64
2023/01/08 08:39:49;;;;;;;12.20;7.23;;;8.20;99.90;;;;;;5052759;28;20233;-63
2023/01/08 08:42:15;;;;;;;8.50;7.23;;;8.20;99.90;;;;;;5053283;28;20198;-64
2023/01/08 08:44:40;;;;;;;11.23;8.40;;;8.20;99.90;;;;;;5051114;28;20250;-63
2023/01/08 08:47:08;;;;;;;25.33;10.17;;;8.20;99.90;;;;;;5051598;28;20175;-63
2023/01/08 08:49:35;;;;;;;12.40;8.13;;;8.20;99.90;;;;;;5052740;28;20170;-64
2023/01/08 08:52:01;;;;;;;18.37;7.97;;;8.20;99.90;;;;;;5052632;28;20285;-63
2023/01/08 08:54:26;;;;;;;26.10;11.13;;;8.20;99.90;;;;;;5052575;28;20632;-63
2023/01/08 08:56:52;;;;;;;8.63;6.80;;;8.20;99.90;;;;;;5052226;28;20261;-63
2023/01/08 08:59:17;;;;;;;5.33;4.93;;;8.20;99.90;;;;;;5052354;28;20659;-64
2023/01/08 09:01:43;;;;;;;5.40;5.10;;;8.10;99.90;;;;;;5052701;28;20210;-64
2023/01/08 09:04:08;;;;;;;6.10;5.70;;;8.10;99.90;;;;;;5052128;28;20182;-64
2023/01/08 09:06:34;;;;;;;5.90;5.47;;;8.10;99.90;;;;;;5052884;28;20167;-64
2023/01/08 09:08:59;;;;;;;5.97;5.67;;;8.00;99.90;;;;;;5051553;28;20663;-64
2023/01/08 09:11:25;;;;;;;7.03;6.47;;;8.00;99.90;;;;;;5050722;28;20269;-63
2023/01/08 09:13:51;;;;;;;5.27;5.07;;;8.00;99.90;;;;;;5052339;28;20171;-63
2023/01/08 09:16:16;;;;;;;5.20;5.00;;;7.90;99.90;;;;;;5052157;28;20672;-64
2023/01/08 09:18:43;;;;;;;5.50;5.30;;;7.90;99.90;;;;;;5052304;28;20209;-64
2023/01/08 09:21:09;;;;;;;5.90;5.60;;;7.90;99.90;;;;;;5051499;28;20241;-63
2023/01/08 09:23:35;;;;;;;10.50;5.60;;;7.90;99.90;;;;;;5050961;28;20226;-63
2023/01/08 09:26:01;;;;;;;5.87;5.40;;;7.90;99.90;;;;;;5051830;28;20171;-64
2023/01/08 09:28:27;;;;;;;5.60;5.20;;;8.00;99.90;;;;;;5052260;28;20175;-63
2023/01/08 09:30:53;;;;;;;12.60;5.37;;;8.30;99.90;;;;;;5051639;28;20185;-64
2023/01/08 09:33:18;;;;;;;4.97;4.63;;;8.90;99.90;;;;;;5051951;28;20249;-63
2023/01/08 09:35:44;;;;;;;5.17;4.63;;;9.60;99.90;;;;;;5051922;28;20641;-64
2023/01/08 09:38:09;;;;;;;4.87;4.40;;;10.30;99.90;;;;;;5052212;28;20174;-63
2023/01/08 09:40:47;;;;;;;4.10;3.90;;;11.00;99.90;;;;;;5051701;28;20676;-64
2023/01/08 09:43:16;;;;;;;6.30;4.40;;;11.60;99.90;;;;;;5052010;28;20198;-63
2023/01/08 09:45:44;;;;;;;4.60;4.40;;;12.20;99.90;;;;;;5051984;28;20171;-64
2023/01/08 09:48:16;;;;;;;4.13;3.83;;;12.60;52.30;;;;;;5051671;28;20178;-63
2023/01/08 09:50:42;;;;;;;4.40;4.00;;;13.00;33.60;;;;;;5051980;28;20181;-63
2023/01/08 09:53:14;;;;;;;3.57;3.37;;;13.30;1.00;;;;;;5051547;28;20607;-63
2023/01/08 09:55:40;;;;;;;4.20;4.00;;;13.40;1.00;;;;;;5051933;28;20178;-63
2023/01/08 09:58:31;;;;;;;4.07;3.87;;;13.50;1.00;;;;;;5051579;28;20640;-63
2023/01/08 10:00:59;;;;;;;4.23;3.70;;;13.60;1.00;;;;;;5051074;28;20213;-64
2023/01/08 10:03:30;;;;;;;3.83;3.53;;;13.50;99.90;;;;;;5051313;28;20698;-64
2023/01/08 10:05:55;;;;;;;4.10;3.80;;;13.60;1.00;;;;;;5051682;28;20640;-64
2023/01/08 10:08:21;;;;;;;6.60;3.80;;;13.70;1.00;;;;;;5050058;28;20182;-65
2023/01/08 10:10:47;;;;;;;3.70;3.40;;;13.80;99.90;;;;;;5050324;28;20178;-64
2023/01/08 10:13:14;;;;;;;3.43;3.23;;;13.80;99.90;;;;;;5051118;28;20296;-65
2023/01/08 10:15:40;;;;;;;3.83;3.60;;;13.80;99.90;;;;;;5051429;28;20513;-64
2023/01/08 10:18:25;;;;;;;3.50;3.30;;;13.70;15.20;;;;;;5051424;28;20171;-64
2023/01/08 10:20:51;;;;;;;3.63;3.33;;;13.40;99.90;;;;;;5050971;28;20191;-64
2023/01/08 10:23:19;;;;;;;3.70;3.60;;;13.30;1.00;;;;;;5050787;28;20193;-64
2023/01/08 10:25:53;;;;;;;3.33;3.23;;;13.30;1.00;;;;;;5051329;28;20175;-64
2023/01/08 10:28:31;;;;;;;3.33;3.20;;;13.50;99.90;;;;;;5051178;28;20184;-64
2023/01/08 10:31:10;;;;;;;4.03;3.70;;;13.70;99.90;;;;;;5050870;28;20177;-64
2023/01/08 10:33:42;;;;;;;3.70;3.40;;;13.90;99.90;;;;;;5050842;28;20225;-65
2023/01/08 10:36:12;;;;;;;4.03;3.73;;;14.20;1.00;;;;;;5051242;28;20174;-65
2023/01/08 10:38:49;;;;;;;3.73;3.43;;;14.60;99.90;;;;;;5051122;28;20183;-65
2023/01/08 10:41:16;;;;;;;4.67;3.03;;;15.00;99.90;;;;;;5050876;28;20213;-64
2023/01/08 10:43:50;;;;;;;3.33;3.03;;;15.30;99.90;;;;;;5051062;28;20198;-64
2023/01/08 10:46:35;;;;;;;3.50;3.30;;;15.70;99.90;;;;;;5051106;28;20175;-64
2023/01/08 10:49:04;;;;;;;3.30;3.10;;;15.90;99.90;;;;;;5049193;28;20182;-65
2023/01/08 10:51:31;;;;;;;3.37;3.10;;;15.90;99.90;;;;;;5050885;28;20262;-64
2023/01/08 10:54:13;;;;;;;3.33;3.13;;;15.80;99.90;;;;;;5050768;28;20187;-65
2023/01/08 10:56:42;;;;;;;3.83;3.63;;;15.50;99.90;;;;;;5051110;28;20167;-65
2023/01/08 10:59:21;;;;;;;3.60;3.30;;;15.50;99.90;;;;;;5050386;28;20801;-64
2023/01/08 11:01:49;;;;;;;3.80;3.40;;;15.60;99.90;;;;;;5050834;28;20255;-65
2023/01/08 11:04:21;;;;;;;3.53;3.33;;;15.70;99.90;;;;;;5050778;28;20236;-65
2023/01/08 11:06:47;;;;;;;4.83;3.67;;;15.90;99.90;;;;;;5051004;28;20250;-65
2023/01/08 11:09:24;;;;;;;3.40;3.20;;;16.10;99.90;;;;;;5047198;28;20298;-64
2023/01/08 11:11:51;;;;;;;3.40;3.20;;;16.10;99.90;;;;;;5049712;28;20186;-63
2023/01/08 11:14:34;;;;;;;3.80;3.50;;;16.00;99.90;;;;;;5050421;28;20312;-64
2023/01/08 11:17:01;;;;;;;3.90;3.70;;;15.50;99.90;;;;;;5049250;28;20178;-65
2023/01/08 11:19:34;;;;;;;3.63;3.40;;;15.30;99.90;;;;;;5065439;28;20179;-65
2023/01/08 11:22:07;;;;;;;4.23;3.70;;;15.30;99.90;;;;;;5050491;28;20241;-64
2023/01/08 11:24:36;;;;;;;3.87;3.67;;;15.00;99.90;;;;;;5050451;28;20175;-64
2023/01/08 11:27:07;;;;;;;4.00;3.80;;;14.40;99.90;;;;;;5050265;28;20240;-65
2023/01/08 11:29:49;;;;;;;3.60;3.37;;;13.90;99.90;;;;;;5053129;28;20241;-64
2023/01/08 11:32:38;;;;;;;4.03;3.73;;;13.40;99.90;;;;;;5042159;28;20663;-64
2023/01/08 11:35:27;;;;;;;4.00;3.70;;;13.10;99.90;;;;;;5054289;28;20548;-64
2023/01/08 11:37:58;;;;;;;3.90;3.60;;;13.00;99.90;;;;;;5053917;28;20198;-64
2023/01/08 11:40:38;;;;;;;4.13;3.97;;;13.10;99.90;;;;;;5053913;28;20564;-64
2023/01/08 11:43:31;;;;;;;3.80;3.50;;;13.20;99.90;;;;;;5053578;28;20210;-64
2023/01/08 11:46:24;;;;;;;3.97;3.80;;;13.10;99.90;;;;;;5053933;28;20629;-64
2023/01/08 11:48:59;;;;;;;4.00;3.80;;;13.00;99.90;;;;;;5052386;28;20258;-65
2023/01/08 11:52:11;;;;;;;4.10;3.80;;;12.80;99.90;;;;;;5052867;28;20179;-64
2023/01/08 11:54:52;;;;;;;3.83;3.63;;;12.80;99.90;;;;;;4993977;28;20189;-64
2023/01/08 11:58:03;;;;;;;3.93;3.80;;;12.70;99.90;;;;;;5049646;28;20179;-65
2023/01/08 12:00:44;;;;;;;3.70;3.60;;;12.70;99.90;;;;;;5037275;28;20214;-64
2023/01/08 12:03:35;;;;;;;4.00;3.80;;;12.70;99.90;;;;;;5053428;28;20191;-64
2023/01/08 12:06:12;;;;;;;3.60;3.50;;;12.60;99.90;;;;;;5053617;28;20178;-64
2023/01/08 12:08:58;;;;;;;3.90;3.70;;;12.60;99.90;;;;;;5053814;28;20181;-64
2023/01/08 12:11:29;;;;;;;3.70;3.60;;;12.50;99.90;;;;;;5052478;28;20183;-64
2023/01/08 12:13:59;;;;;;;3.87;3.73;;;12.50;99.90;;;;;;5053271;28;20179;-63
2023/01/08 12:16:30;;;;;;;3.90;3.80;;;12.40;99.90;;;;;;5052107;28;20264;-64
2023/01/08 12:19:35;;;;;;;3.60;3.50;;;12.40;99.90;;;;;;5053248;28;20175;-64
2023/01/08 12:22:30;;;;;;;3.90;3.60;;;12.40;99.90;;;;;;5052877;28;20209;-64
2023/01/08 12:25:32;;;;;;;3.80;3.60;;;12.50;99.90;;;;;;5051707;28;20182;-64
2023/01/08 12:28:24;;;;;;;3.60;3.50;;;12.70;99.90;;;;;;5052640;28;20175;-64
2023/01/08 12:31:21;;;;;;;4.10;3.90;;;12.70;99.90;;;;;;5052960;28;20281;-64
2023/01/08 12:33:56;;;;;;;4.93;4.33;;;12.70;99.90;;;;;;5052763;28;20179;-64
2023/01/08 12:36:45;;;;;;;3.93;3.73;;;12.70;99.90;;;;;;5053338;28;20196;-64
2023/01/08 12:39:46;;;;;;;4.10;3.90;;;12.80;99.90;;;;;;5051463;28;20186;-63
2023/01/08 12:42:23;;;;;;;3.80;3.60;;;12.90;99.90;;;;;;5030898;28;20218;-64
2023/01/08 12:44:53;;;;;;;3.70;3.60;;;12.90;99.90;;;;;;5052327;28;20186;-65
2023/01/08 12:47:21;;;;;;;5.13;3.90;;;13.00;99.90;;;;;;5051667;28;20178;-63
2023/01/08 12:49:59;;;;;;;3.70;3.50;;;13.00;99.90;;;;;;5052208;28;20257;-64
2023/01/08 12:52:35;;;;;;;4.33;3.97;;;13.00;99.90;;;;;;5052983;28;20214;-64
2023/01/08 12:55:24;;;;;;;4.07;3.87;;;13.00;99.90;;;;;;5052616;28;20182;-63
2023/01/08 12:58:25;;;;;;;4.07;3.80;;;12.90;99.90;;;;;;5052860;28;20167;-64
2023/01/08 13:01:20;;;;;;;4.17;3.87;;;12.80;99.90;;;;;;5037402;28;20653;-63
2023/01/08 13:03:47;;;;;;;3.80;3.70;;;12.70;99.90;;;;;;5043818;28;20210;-64
2023/01/08 13:06:17;;;;;;;3.70;3.50;;;12.60;99.90;;;;;;5052525;28;20173;-64
2023/01/08 13:08:52;;;;;;;4.30;4.00;;;12.60;99.90;;;;;;5052744;28;20179;-64